sensor_id;sensor_type;location;lat;lon;timestamp;temperature;humidity
53748;DHT22;39655;53.210;5.768;2023-11-19T00:00:20;12.10;99.10
53748;DHT22;39655;53.210;5.768;2023-11-19T00:02:46;12.00;99.10
53748;DHT22;39655;53.210;5.768;2023-11-19T00:05:13;12.00;99.10
53748;DHT22;39655;53.210;5.768;2023-11-19T00:07:39;12.00;99.00
53748;DHT22;39655;53.210;5.768;2023-11-19T00:10:09;12.00;99.10
53748;DHT22;39655;53.210;5.768;2023-11-19T00:12:39;12.00;99.10
53748;DHT22;39655;53.210;5.768;2023-11-19T00:15:06;12.00;99.10
53748;DHT22;39655;53.210;5.768;2023-11-19T00:17:34;12.10;99.10
53748;DHT22;39655;53.210;5.768;2023-11-19T00:19:59;12.10;99.10
53748;DHT22;39655;53.210;5.768;2023-11-19T00:22:25;12.10;99.20
53748;DHT22;39655;53.210;5.768;2023-11-19T00:24:51;12.20;99.20
53748;DHT22;39655;53.210;5.768;2023-11-19T00:27:16;12.20;99.20
53748;DHT22;39655;53.210;5.768;2023-11-19T00:29:43;12.30;99.20
53748;DHT22;39655;53.210;5.768;2023-11-19T00:32:11;12.40;99.30
53748;DHT22;39655;53.210;5.768;2023-11-19T00:34:37;12.30;99.10
53748;DHT22;39655;53.210;5.768;2023-11-19T00:37:02;12.30;99.10
53748;DHT22;39655;53.210;5.768;2023-11-19T00:39:29;12.40;99.20
53748;DHT22;39655;53.210;5.768;2023-11-19T00:41:54;12.40;99.10
53748;DHT22;39655;53.210;5.768;2023-11-19T00:44:20;12.50;99.10
53748;DHT22;39655;53.210;5.768;2023-11-19T00:46:47;12.50;99.00
53748;DHT22;39655;53.210;5.768;2023-11-19T00:49:12;12.60;99.00
53748;DHT22;39655;53.210;5.768;2023-11-19T00:51:38;12.60;98.80
53748;DHT22;39655;53.210;5.768;2023-11-19T00:54:04;12.60;98.60
53748;DHT22;39655;53.210;5.768;2023-11-19T00:56:29;12.60;98.60
53748;DHT22;39655;53.210;5.768;2023-11-19T00:58:55;12.60;98.50
53748;DHT22;39655;53.210;5.768;2023-11-19T01:01:21;12.50;98.40
53748;DHT22;39655;53.210;5.768;2023-11-19T01:03:47;12.60;98.00
53748;DHT22;39655;53.210;5.768;2023-11-19T01:06:12;12.60;97.90
53748;DHT22;39655;53.210;5.768;2023-11-19T01:08:39;12.50;97.90
53748;DHT22;39655;53.210;5.768;2023-11-19T01:11:05;12.50;97.80
53748;DHT22;39655;53.210;5.768;2023-11-19T01:13:30;12.40;97.80
53748;DHT22;39655;53.210;5.768;2023-11-19T01:15:56;12.40;97.80
53748;DHT22;39655;53.210;5.768;2023-11-19T01:18:22;12.40;97.80
53748;DHT22;39655;53.210;5.768;2023-11-19T01:20:47;12.40;97.60
53748;DHT22;39655;53.210;5.768;2023-11-19T01:23:13;12.40;97.60
53748;DHT22;39655;53.210;5.768;2023-11-19T01:25:39;12.40;97.60
53748;DHT22;39655;53.210;5.768;2023-11-19T01:28:04;12.40;97.50
53748;DHT22;39655;53.210;5.768;2023-11-19T01:30:30;12.40;97.50
53748;DHT22;39655;53.210;5.768;2023-11-19T01:32:56;12.40;97.40
53748;DHT22;39655;53.210;5.768;2023-11-19T01:35:21;12.30;97.30
53748;DHT22;39655;53.210;5.768;2023-11-19T01:37:48;12.30;97.30
53748;DHT22;39655;53.210;5.768;2023-11-19T01:40:14;12.20;97.40
53748;DHT22;39655;53.210;5.768;2023-11-19T01:42:41;12.20;97.30
53748;DHT22;39655;53.210;5.768;2023-11-19T01:45:07;12.10;97.20
53748;DHT22;39655;53.210;5.768;2023-11-19T01:47:33;12.10;97.20
53748;DHT22;39655;53.210;5.768;2023-11-19T01:50:01;12.00;97.20
53748;DHT22;39655;53.210;5.768;2023-11-19T01:52:32;11.90;97.30
53748;DHT22;39655;53.210;5.768;2023-11-19T01:54:59;11.90;97.20
53748;DHT22;39655;53.210;5.768;2023-11-19T01:57:24;11.80;97.30
53748;DHT22;39655;53.210;5.768;2023-11-19T01:59:51;11.70;97.30
53748;DHT22;39655;53.210;5.768;2023-11-19T02:02:18;11.70;97.40
53748;DHT22;39655;53.210;5.768;2023-11-19T02:04:47;11.70;97.60
53748;DHT22;39655;53.210;5.768;2023-11-19T02:07:14;11.80;97.60
53748;DHT22;39655;53.210;5.768;2023-11-19T02:09:43;11.80;97.50
53748;DHT22;39655;53.210;5.768;2023-11-19T02:12:09;11.90;97.30
53748;DHT22;39655;53.210;5.768;2023-11-19T02:14:37;11.90;97.10
53748;DHT22;39655;53.210;5.768;2023-11-19T02:17:04;11.80;97.00
53748;DHT22;39655;53.210;5.768;2023-11-19T02:19:29;11.90;97.00
53748;DHT22;39655;53.210;5.768;2023-11-19T02:21:55;11.90;96.80
53748;DHT22;39655;53.210;5.768;2023-11-19T02:24:22;11.80;96.80
53748;DHT22;39655;53.210;5.768;2023-11-19T02:27:10;11.90;96.70
53748;DHT22;39655;53.210;5.768;2023-11-19T02:29:40;11.80;96.60
53748;DHT22;39655;53.210;5.768;2023-11-19T02:32:06;11.90;96.60
53748;DHT22;39655;53.210;5.768;2023-11-19T02:34:34;11.80;96.50
53748;DHT22;39655;53.210;5.768;2023-11-19T02:37:00;11.80;96.40
53748;DHT22;39655;53.210;5.768;2023-11-19T02:39:25;11.90;96.40
53748;DHT22;39655;53.210;5.768;2023-11-19T02:41:51;11.90;96.30
53748;DHT22;39655;53.210;5.768;2023-11-19T02:44:18;11.90;96.10
53748;DHT22;39655;53.210;5.768;2023-11-19T02:46:44;11.90;96.20
53748;DHT22;39655;53.210;5.768;2023-11-19T02:49:09;12.00;96.20
53748;DHT22;39655;53.210;5.768;2023-11-19T02:51:35;12.10;95.90
53748;DHT22;39655;53.210;5.768;2023-11-19T02:54:01;12.20;95.70
53748;DHT22;39655;53.210;5.768;2023-11-19T02:56:29;12.20;95.60
53748;DHT22;39655;53.210;5.768;2023-11-19T02:59:00;12.20;95.60
53748;DHT22;39655;53.210;5.768;2023-11-19T03:01:33;12.20;95.50
53748;DHT22;39655;53.210;5.768;2023-11-19T03:04:01;12.20;95.50
53748;DHT22;39655;53.210;5.768;2023-11-19T03:06:27;12.20;95.40
53748;DHT22;39655;53.210;5.768;2023-11-19T03:08:54;12.20;95.30
53748;DHT22;39655;53.210;5.768;2023-11-19T03:11:20;12.20;95.40
53748;DHT22;39655;53.210;5.768;2023-11-19T03:13:46;12.30;95.40
53748;DHT22;39655;53.210;5.768;2023-11-19T03:16:12;12.30;95.50
53748;DHT22;39655;53.210;5.768;2023-11-19T03:18:38;12.30;95.60
53748;DHT22;39655;53.210;5.768;2023-11-19T03:21:06;12.30;95.70
53748;DHT22;39655;53.210;5.768;2023-11-19T03:23:32;12.20;95.80
53748;DHT22;39655;53.210;5.768;2023-11-19T03:25:58;12.30;95.90
53748;DHT22;39655;53.210;5.768;2023-11-19T03:28:23;12.30;95.90
53748;DHT22;39655;53.210;5.768;2023-11-19T03:30:50;12.30;95.80
53748;DHT22;39655;53.210;5.768;2023-11-19T03:33:15;12.30;95.60
53748;DHT22;39655;53.210;5.768;2023-11-19T03:35:41;12.40;95.20
53748;DHT22;39655;53.210;5.768;2023-11-19T03:38:07;12.40;95.00
53748;DHT22;39655;53.210;5.768;2023-11-19T03:40:32;12.40;94.80
53748;DHT22;39655;53.210;5.768;2023-11-19T03:42:58;12.30;94.60
53748;DHT22;39655;53.210;5.768;2023-11-19T03:45:24;12.30;94.00
53748;DHT22;39655;53.210;5.768;2023-11-19T03:47:50;12.20;93.90
53748;DHT22;39655;53.210;5.768;2023-11-19T03:50:16;12.20;93.70
53748;DHT22;39655;53.210;5.768;2023-11-19T03:52:42;12.10;93.60
53748;DHT22;39655;53.210;5.768;2023-11-19T03:55:07;12.00;93.70
53748;DHT22;39655;53.210;5.768;2023-11-19T03:57:34;12.10;93.30
53748;DHT22;39655;53.210;5.768;2023-11-19T04:00:00;12.00;93.40
53748;DHT22;39655;53.210;5.768;2023-11-19T04:02:31;11.90;93.50
53748;DHT22;39655;53.210;5.768;2023-11-19T04:04:56;11.90;93.50
53748;DHT22;39655;53.210;5.768;2023-11-19T04:07:22;11.70;93.60
53748;DHT22;39655;53.210;5.768;2023-11-19T04:09:47;11.70;93.70
53748;DHT22;39655;53.210;5.768;2023-11-19T04:12:13;11.70;93.60
53748;DHT22;39655;53.210;5.768;2023-11-19T04:14:39;11.70;93.70
53748;DHT22;39655;53.210;5.768;2023-11-19T04:17:06;11.80;93.50
53748;DHT22;39655;53.210;5.768;2023-11-19T04:19:31;11.80;93.40
53748;DHT22;39655;53.210;5.768;2023-11-19T04:21:58;11.80;93.30
53748;DHT22;39655;53.210;5.768;2023-11-19T04:24:23;11.80;93.40
53748;DHT22;39655;53.210;5.768;2023-11-19T04:26:50;11.80;93.40
53748;DHT22;39655;53.210;5.768;2023-11-19T04:29:16;11.80;93.30
53748;DHT22;39655;53.210;5.768;2023-11-19T04:31:43;11.80;93.50
53748;DHT22;39655;53.210;5.768;2023-11-19T04:34:10;11.90;93.30
53748;DHT22;39655;53.210;5.768;2023-11-19T04:36:36;11.90;93.10
53748;DHT22;39655;53.210;5.768;2023-11-19T04:39:03;12.00;92.50
53748;DHT22;39655;53.210;5.768;2023-11-19T04:41:34;12.00;92.50
53748;DHT22;39655;53.210;5.768;2023-11-19T04:43:59;12.00;92.50
53748;DHT22;39655;53.210;5.768;2023-11-19T04:46:25;12.00;92.50
53748;DHT22;39655;53.210;5.768;2023-11-19T04:48:51;12.00;92.60
53748;DHT22;39655;53.210;5.768;2023-11-19T04:51:16;12.00;92.50
53748;DHT22;39655;53.210;5.768;2023-11-19T04:53:42;12.00;92.50
53748;DHT22;39655;53.210;5.768;2023-11-19T04:56:11;11.90;92.60
53748;DHT22;39655;53.210;5.768;2023-11-19T04:58:38;11.90;92.70
53748;DHT22;39655;53.210;5.768;2023-11-19T05:01:04;11.90;92.50
53748;DHT22;39655;53.210;5.768;2023-11-19T05:03:31;11.90;92.60
53748;DHT22;39655;53.210;5.768;2023-11-19T05:05:57;11.90;92.50
53748;DHT22;39655;53.210;5.768;2023-11-19T05:08:22;11.90;92.60
53748;DHT22;39655;53.210;5.768;2023-11-19T05:10:48;11.90;92.50
53748;DHT22;39655;53.210;5.768;2023-11-19T05:13:14;11.90;92.20
53748;DHT22;39655;53.210;5.768;2023-11-19T05:15:40;11.90;92.30
53748;DHT22;39655;53.210;5.768;2023-11-19T05:18:06;12.00;92.20
53748;DHT22;39655;53.210;5.768;2023-11-19T05:20:32;12.00;92.10
53748;DHT22;39655;53.210;5.768;2023-11-19T05:22:58;12.00;91.90
53748;DHT22;39655;53.210;5.768;2023-11-19T05:25:26;11.90;91.90
53748;DHT22;39655;53.210;5.768;2023-11-19T05:27:52;11.90;91.90
53748;DHT22;39655;53.210;5.768;2023-11-19T05:30:18;11.80;91.90
53748;DHT22;39655;53.210;5.768;2023-11-19T05:32:43;11.70;92.30
53748;DHT22;39655;53.210;5.768;2023-11-19T05:35:09;11.80;92.00
53748;DHT22;39655;53.210;5.768;2023-11-19T05:37:34;11.80;92.00
53748;DHT22;39655;53.210;5.768;2023-11-19T05:40:01;11.70;91.90
53748;DHT22;39655;53.210;5.768;2023-11-19T05:42:29;11.70;92.00
53748;DHT22;39655;53.210;5.768;2023-11-19T05:44:54;11.80;92.00
53748;DHT22;39655;53.210;5.768;2023-11-19T05:47:20;11.80;91.80
53748;DHT22;39655;53.210;5.768;2023-11-19T05:49:45;11.90;91.60
53748;DHT22;39655;53.210;5.768;2023-11-19T05:52:11;11.80;91.70
53748;DHT22;39655;53.210;5.768;2023-11-19T05:54:38;11.80;91.70
53748;DHT22;39655;53.210;5.768;2023-11-19T05:57:06;11.70;91.80
53748;DHT22;39655;53.210;5.768;2023-11-19T05:59:35;11.80;91.70
53748;DHT22;39655;53.210;5.768;2023-11-19T06:02:01;11.70;91.60
53748;DHT22;39655;53.210;5.768;2023-11-19T06:04:27;11.70;91.70
53748;DHT22;39655;53.210;5.768;2023-11-19T06:06:53;11.80;91.70
53748;DHT22;39655;53.210;5.768;2023-11-19T06:09:20;11.80;91.60
53748;DHT22;39655;53.210;5.768;2023-11-19T06:11:46;11.80;91.70
53748;DHT22;39655;53.210;5.768;2023-11-19T06:14:12;11.80;91.50
53748;DHT22;39655;53.210;5.768;2023-11-19T06:16:38;11.80;91.40
53748;DHT22;39655;53.210;5.768;2023-11-19T06:19:05;11.80;91.40
53748;DHT22;39655;53.210;5.768;2023-11-19T06:21:31;11.80;91.30
53748;DHT22;39655;53.210;5.768;2023-11-19T06:23:56;11.80;91.20
53748;DHT22;39655;53.210;5.768;2023-11-19T06:26:23;11.70;91.40
53748;DHT22;39655;53.210;5.768;2023-11-19T06:28:49;11.70;91.30
53748;DHT22;39655;53.210;5.768;2023-11-19T06:31:14;11.70;91.30
53748;DHT22;39655;53.210;5.768;2023-11-19T06:33:42;11.70;91.30
53748;DHT22;39655;53.210;5.768;2023-11-19T06:36:08;11.60;91.40
53748;DHT22;39655;53.210;5.768;2023-11-19T06:38:35;11.60;91.40
53748;DHT22;39655;53.210;5.768;2023-11-19T06:41:00;11.60;91.90
53748;DHT22;39655;53.210;5.768;2023-11-19T06:43:27;11.40;92.20
53748;DHT22;39655;53.210;5.768;2023-11-19T06:45:53;11.40;92.60
53748;DHT22;39655;53.210;5.768;2023-11-19T06:48:19;11.50;92.60
53748;DHT22;39655;53.210;5.768;2023-11-19T06:50:45;11.50;92.80
53748;DHT22;39655;53.210;5.768;2023-11-19T06:53:11;11.50;92.70
53748;DHT22;39655;53.210;5.768;2023-11-19T06:55:36;11.50;92.60
53748;DHT22;39655;53.210;5.768;2023-11-19T06:58:02;11.50;92.40
53748;DHT22;39655;53.210;5.768;2023-11-19T07:00:29;11.60;92.20
53748;DHT22;39655;53.210;5.768;2023-11-19T07:02:55;11.60;92.20
53748;DHT22;39655;53.210;5.768;2023-11-19T07:05:20;11.50;92.30
53748;DHT22;39655;53.210;5.768;2023-11-19T07:07:46;11.60;91.90
53748;DHT22;39655;53.210;5.768;2023-11-19T07:10:12;11.60;91.70
53748;DHT22;39655;53.210;5.768;2023-11-19T07:12:38;11.60;91.60
53748;DHT22;39655;53.210;5.768;2023-11-19T07:15:04;11.50;91.70
53748;DHT22;39655;53.210;5.768;2023-11-19T07:17:30;11.50;91.70
53748;DHT22;39655;53.210;5.768;2023-11-19T07:19:56;11.50;91.70
53748;DHT22;39655;53.210;5.768;2023-11-19T07:22:25;11.60;91.40
53748;DHT22;39655;53.210;5.768;2023-11-19T07:24:50;11.40;91.60
53748;DHT22;39655;53.210;5.768;2023-11-19T07:27:16;11.40;91.60
53748;DHT22;39655;53.210;5.768;2023-11-19T07:29:43;11.40;91.60
53748;DHT22;39655;53.210;5.768;2023-11-19T07:32:10;11.40;91.70
53748;DHT22;39655;53.210;5.768;2023-11-19T07:34:35;11.40;92.10
53748;DHT22;39655;53.210;5.768;2023-11-19T07:37:01;11.50;91.60
53748;DHT22;39655;53.210;5.768;2023-11-19T07:39:28;11.60;91.40
53748;DHT22;39655;53.210;5.768;2023-11-19T07:41:54;11.60;91.30
53748;DHT22;39655;53.210;5.768;2023-11-19T07:44:20;11.60;91.20
53748;DHT22;39655;53.210;5.768;2023-11-19T07:46:47;11.70;91.10
53748;DHT22;39655;53.210;5.768;2023-11-19T07:49:13;11.70;91.10
53748;DHT22;39655;53.210;5.768;2023-11-19T07:51:39;11.70;91.00
53748;DHT22;39655;53.210;5.768;2023-11-19T07:54:05;11.80;90.80
53748;DHT22;39655;53.210;5.768;2023-11-19T07:56:31;11.80;90.80
53748;DHT22;39655;53.210;5.768;2023-11-19T07:58:57;11.80;90.60
53748;DHT22;39655;53.210;5.768;2023-11-19T08:01:22;11.80;90.60
53748;DHT22;39655;53.210;5.768;2023-11-19T08:03:49;11.90;90.60
53748;DHT22;39655;53.210;5.768;2023-11-19T08:06:14;11.90;90.40
53748;DHT22;39655;53.210;5.768;2023-11-19T08:08:40;12.00;90.30
53748;DHT22;39655;53.210;5.768;2023-11-19T08:11:06;12.00;90.10
53748;DHT22;39655;53.210;5.768;2023-11-19T08:13:31;12.00;90.10
53748;DHT22;39655;53.210;5.768;2023-11-19T08:15:57;12.00;90.10
53748;DHT22;39655;53.210;5.768;2023-11-19T08:18:24;12.00;90.20
53748;DHT22;39655;53.210;5.768;2023-11-19T08:20:49;12.00;90.20
53748;DHT22;39655;53.210;5.768;2023-11-19T08:23:18;11.90;90.10
53748;DHT22;39655;53.210;5.768;2023-11-19T08:25:44;12.00;90.10
53748;DHT22;39655;53.210;5.768;2023-11-19T08:28:10;12.00;90.60
53748;DHT22;39655;53.210;5.768;2023-11-19T08:30:35;11.90;91.00
53748;DHT22;39655;53.210;5.768;2023-11-19T08:33:01;11.90;91.50
53748;DHT22;39655;53.210;5.768;2023-11-19T08:35:28;11.80;91.60
53748;DHT22;39655;53.210;5.768;2023-11-19T08:37:54;11.90;91.80
53748;DHT22;39655;53.210;5.768;2023-11-19T08:40:20;11.80;91.80
53748;DHT22;39655;53.210;5.768;2023-11-19T08:42:45;11.80;91.90
53748;DHT22;39655;53.210;5.768;2023-11-19T08:45:11;11.80;91.50
53748;DHT22;39655;53.210;5.768;2023-11-19T08:47:37;11.90;91.40
53748;DHT22;39655;53.210;5.768;2023-11-19T08:50:03;12.00;91.00
53748;DHT22;39655;53.210;5.768;2023-11-19T08:52:30;12.00;90.90
53748;DHT22;39655;53.210;5.768;2023-11-19T08:54:55;12.10;90.50
53748;DHT22;39655;53.210;5.768;2023-11-19T08:57:21;12.10;90.30
53748;DHT22;39655;53.210;5.768;2023-11-19T08:59:47;12.20;89.70
53748;DHT22;39655;53.210;5.768;2023-11-19T09:02:12;12.20;89.60
53748;DHT22;39655;53.210;5.768;2023-11-19T09:04:38;12.20;89.80
53748;DHT22;39655;53.210;5.768;2023-11-19T09:07:03;12.30;89.80
53748;DHT22;39655;53.210;5.768;2023-11-19T09:09:29;12.30;89.50
53748;DHT22;39655;53.210;5.768;2023-11-19T09:11:55;12.30;89.50
53748;DHT22;39655;53.210;5.768;2023-11-19T09:14:21;12.40;89.50
53748;DHT22;39655;53.210;5.768;2023-11-19T09:16:51;12.40;89.70
53748;DHT22;39655;53.210;5.768;2023-11-19T09:19:17;12.40;89.40
53748;DHT22;39655;53.210;5.768;2023-11-19T09:21:43;12.50;89.00
53748;DHT22;39655;53.210;5.768;2023-11-19T09:24:09;12.50;88.90
53748;DHT22;39655;53.210;5.768;2023-11-19T09:26:34;12.60;88.90
53748;DHT22;39655;53.210;5.768;2023-11-19T09:29:02;12.60;88.80
53748;DHT22;39655;53.210;5.768;2023-11-19T09:31:27;12.60;88.70
53748;DHT22;39655;53.210;5.768;2023-11-19T09:33:53;12.60;88.50
53748;DHT22;39655;53.210;5.768;2023-11-19T09:36:19;12.70;88.30
53748;DHT22;39655;53.210;5.768;2023-11-19T09:38:45;12.70;88.50
53748;DHT22;39655;53.210;5.768;2023-11-19T09:41:11;12.60;88.80
53748;DHT22;39655;53.210;5.768;2023-11-19T09:43:42;12.70;88.60
53748;DHT22;39655;53.210;5.768;2023-11-19T09:46:13;12.80;88.10
53748;DHT22;39655;53.210;5.768;2023-11-19T09:48:39;12.70;88.20
53748;DHT22;39655;53.210;5.768;2023-11-19T09:51:11;12.70;88.40
53748;DHT22;39655;53.210;5.768;2023-11-19T09:53:37;12.70;88.40
53748;DHT22;39655;53.210;5.768;2023-11-19T09:56:04;12.70;88.50
53748;DHT22;39655;53.210;5.768;2023-11-19T09:58:31;12.70;88.50
53748;DHT22;39655;53.210;5.768;2023-11-19T10:00:57;12.60;88.90
53748;DHT22;39655;53.210;5.768;2023-11-19T10:03:31;12.70;88.50
53748;DHT22;39655;53.210;5.768;2023-11-19T10:05:58;12.70;88.50
53748;DHT22;39655;53.210;5.768;2023-11-19T10:08:24;12.90;88.00
53748;DHT22;39655;53.210;5.768;2023-11-19T10:10:50;12.90;88.20
53748;DHT22;39655;53.210;5.768;2023-11-19T10:13:17;12.80;88.40
53748;DHT22;39655;53.210;5.768;2023-11-19T10:15:43;12.90;88.00
53748;DHT22;39655;53.210;5.768;2023-11-19T10:18:09;12.90;88.30
53748;DHT22;39655;53.210;5.768;2023-11-19T10:20:41;12.90;88.00
53748;DHT22;39655;53.210;5.768;2023-11-19T10:23:07;12.90;87.60
53748;DHT22;39655;53.210;5.768;2023-11-19T10:25:33;12.90;87.40
53748;DHT22;39655;53.210;5.768;2023-11-19T10:27:59;12.90;87.50
53748;DHT22;39655;53.210;5.768;2023-11-19T10:30:27;12.90;87.50
53748;DHT22;39655;53.210;5.768;2023-11-19T10:35:57;12.90;87.30
53748;DHT22;39655;53.210;5.768;2023-11-19T10:38:23;12.90;87.00
53748;DHT22;39655;53.210;5.768;2023-11-19T10:40:53;12.90;87.50
53748;DHT22;39655;53.210;5.768;2023-11-19T10:43:20;12.90;87.30
53748;DHT22;39655;53.210;5.768;2023-11-19T10:45:50;12.90;87.50
53748;DHT22;39655;53.210;5.768;2023-11-19T10:48:16;13.00;87.00
53748;DHT22;39655;53.210;5.768;2023-11-19T10:50:43;12.90;87.10
53748;DHT22;39655;53.210;5.768;2023-11-19T10:53:11;12.90;87.20
53748;DHT22;39655;53.210;5.768;2023-11-19T10:55:39;12.90;87.30
53748;DHT22;39655;53.210;5.768;2023-11-19T10:58:08;13.00;87.10
53748;DHT22;39655;53.210;5.768;2023-11-19T11:03:18;13.00;87.00
53748;DHT22;39655;53.210;5.768;2023-11-19T11:05:46;13.00;87.40
53748;DHT22;39655;53.210;5.768;2023-11-19T11:08:13;13.00;87.30
53748;DHT22;39655;53.210;5.768;2023-11-19T11:10:54;13.00;87.30
53748;DHT22;39655;53.210;5.768;2023-11-19T11:13:22;12.90;87.50
53748;DHT22;39655;53.210;5.768;2023-11-19T11:15:49;12.90;87.50
53748;DHT22;39655;53.210;5.768;2023-11-19T11:18:16;12.90;87.60
53748;DHT22;39655;53.210;5.768;2023-11-19T11:20:44;13.00;87.90
53748;DHT22;39655;53.210;5.768;2023-11-19T11:29:09;13.00;88.60
53748;DHT22;39655;53.210;5.768;2023-11-19T11:39:50;12.40;93.30
53748;DHT22;39655;53.210;5.768;2023-11-19T11:45:03;12.40;93.10
53748;DHT22;39655;53.210;5.768;2023-11-19T11:50:18;12.50;92.70
53748;DHT22;39655;53.210;5.768;2023-11-19T11:53:13;12.50;92.50
53748;DHT22;39655;53.210;5.768;2023-11-19T11:58:17;12.60;92.40
53748;DHT22;39655;53.210;5.768;2023-11-19T12:00:43;12.60;92.60
53748;DHT22;39655;53.210;5.768;2023-11-19T12:03:09;12.60;92.40
53748;DHT22;39655;53.210;5.768;2023-11-19T12:05:44;12.60;92.40
53748;DHT22;39655;53.210;5.768;2023-11-19T12:08:11;12.60;92.10
53748;DHT22;39655;53.210;5.768;2023-11-19T12:10:44;12.50;92.10
53748;DHT22;39655;53.210;5.768;2023-11-19T12:13:10;12.50;92.10
53748;DHT22;39655;53.210;5.768;2023-11-19T12:16:07;12.60;91.10
53748;DHT22;39655;53.210;5.768;2023-11-19T12:18:33;12.60;90.40
53748;DHT22;39655;53.210;5.768;2023-11-19T12:20:59;12.70;90.40
53748;DHT22;39655;53.210;5.768;2023-11-19T12:23:31;12.70;90.10
53748;DHT22;39655;53.210;5.768;2023-11-19T12:25:58;12.80;90.10
53748;DHT22;39655;53.210;5.768;2023-11-19T12:28:24;12.80;90.40
53748;DHT22;39655;53.210;5.768;2023-11-19T12:30:52;12.80;90.10
53748;DHT22;39655;53.210;5.768;2023-11-19T12:33:19;12.80;89.90
53748;DHT22;39655;53.210;5.768;2023-11-19T12:35:46;12.80;89.90
53748;DHT22;39655;53.210;5.768;2023-11-19T12:40:44;13.10;88.60
53748;DHT22;39655;53.210;5.768;2023-11-19T12:43:09;13.30;88.10
53748;DHT22;39655;53.210;5.768;2023-11-19T12:45:36;13.30;87.90
53748;DHT22;39655;53.210;5.768;2023-11-19T12:48:08;13.40;87.20
53748;DHT22;39655;53.210;5.768;2023-11-19T12:50:57;13.30;87.40
53748;DHT22;39655;53.210;5.768;2023-11-19T12:53:26;13.20;87.70
53748;DHT22;39655;53.210;5.768;2023-11-19T12:55:52;13.20;87.80
53748;DHT22;39655;53.210;5.768;2023-11-19T12:58:33;13.10;87.60
53748;DHT22;39655;53.210;5.768;2023-11-19T13:01:06;13.10;87.80
53748;DHT22;39655;53.210;5.768;2023-11-19T13:03:33;13.10;87.60
53748;DHT22;39655;53.210;5.768;2023-11-19T13:06:04;13.10;87.40
53748;DHT22;39655;53.210;5.768;2023-11-19T13:08:42;13.10;87.30
53748;DHT22;39655;53.210;5.768;2023-11-19T13:11:09;13.10;87.30
53748;DHT22;39655;53.210;5.768;2023-11-19T13:13:59;13.00;87.70
53748;DHT22;39655;53.210;5.768;2023-11-19T13:16:26;12.90;87.80
53748;DHT22;39655;53.210;5.768;2023-11-19T13:18:52;12.90;88.00
53748;DHT22;39655;53.210;5.768;2023-11-19T13:21:18;12.80;87.90
53748;DHT22;39655;53.210;5.768;2023-11-19T13:23:44;12.80;88.20
53748;DHT22;39655;53.210;5.768;2023-11-19T13:26:10;12.80;88.40
53748;DHT22;39655;53.210;5.768;2023-11-19T13:28:37;12.70;88.50
53748;DHT22;39655;53.210;5.768;2023-11-19T13:31:02;12.70;88.40
53748;DHT22;39655;53.210;5.768;2023-11-19T13:33:28;12.70;88.30
53748;DHT22;39655;53.210;5.768;2023-11-19T13:35:55;12.70;88.30
53748;DHT22;39655;53.210;5.768;2023-11-19T13:38:20;12.70;88.50
53748;DHT22;39655;53.210;5.768;2023-11-19T13:40:46;12.70;88.80
53748;DHT22;39655;53.210;5.768;2023-11-19T13:43:12;12.70;88.60
53748;DHT22;39655;53.210;5.768;2023-11-19T13:45:37;12.60;88.60
53748;DHT22;39655;53.210;5.768;2023-11-19T13:48:03;12.70;88.60
53748;DHT22;39655;53.210;5.768;2023-11-19T13:50:29;12.70;88.30
53748;DHT22;39655;53.210;5.768;2023-11-19T13:52:55;12.70;88.10
53748;DHT22;39655;53.210;5.768;2023-11-19T13:55:21;12.70;88.20
53748;DHT22;39655;53.210;5.768;2023-11-19T13:57:47;12.60;88.40
53748;DHT22;39655;53.210;5.768;2023-11-19T14:00:14;12.60;88.50
53748;DHT22;39655;53.210;5.768;2023-11-19T14:02:46;12.60;88.40
53748;DHT22;39655;53.210;5.768;2023-11-19T14:05:13;12.60;88.30
53748;DHT22;39655;53.210;5.768;2023-11-19T14:07:40;12.60;88.50
53748;DHT22;39655;53.210;5.768;2023-11-19T14:10:06;12.50;88.50
53748;DHT22;39655;53.210;5.768;2023-11-19T14:12:33;12.60;88.30
53748;DHT22;39655;53.210;5.768;2023-11-19T14:14:59;12.50;88.20
53748;DHT22;39655;53.210;5.768;2023-11-19T14:17:26;12.50;88.40
53748;DHT22;39655;53.210;5.768;2023-11-19T14:19:52;12.50;88.30
53748;DHT22;39655;53.210;5.768;2023-11-19T14:22:18;12.50;88.40
53748;DHT22;39655;53.210;5.768;2023-11-19T14:24:43;12.60;88.30
53748;DHT22;39655;53.210;5.768;2023-11-19T14:27:10;12.60;87.80
53748;DHT22;39655;53.210;5.768;2023-11-19T14:29:36;12.60;88.10
53748;DHT22;39655;53.210;5.768;2023-11-19T14:32:02;12.50;87.90
53748;DHT22;39655;53.210;5.768;2023-11-19T14:34:31;12.50;87.80
53748;DHT22;39655;53.210;5.768;2023-11-19T14:36:58;12.50;87.80
53748;DHT22;39655;53.210;5.768;2023-11-19T14:39:24;12.50;87.80
53748;DHT22;39655;53.210;5.768;2023-11-19T14:41:49;12.50;87.70
53748;DHT22;39655;53.210;5.768;2023-11-19T14:44:16;12.50;87.60
53748;DHT22;39655;53.210;5.768;2023-11-19T14:46:42;12.40;87.80
53748;DHT22;39655;53.210;5.768;2023-11-19T14:49:07;12.40;88.20
53748;DHT22;39655;53.210;5.768;2023-11-19T14:51:37;12.40;88.20
53748;DHT22;39655;53.210;5.768;2023-11-19T14:54:06;12.40;88.20
53748;DHT22;39655;53.210;5.768;2023-11-19T14:56:32;12.40;87.90
53748;DHT22;39655;53.210;5.768;2023-11-19T14:58:58;12.50;87.80
53748;DHT22;39655;53.210;5.768;2023-11-19T15:01:27;12.50;87.90
53748;DHT22;39655;53.210;5.768;2023-11-19T15:03:54;12.40;88.10
53748;DHT22;39655;53.210;5.768;2023-11-19T15:06:23;12.40;88.00
53748;DHT22;39655;53.210;5.768;2023-11-19T15:08:48;12.40;87.90
53748;DHT22;39655;53.210;5.768;2023-11-19T15:11:14;12.40;88.10
53748;DHT22;39655;53.210;5.768;2023-11-19T15:13:40;12.30;88.30
53748;DHT22;39655;53.210;5.768;2023-11-19T15:16:07;12.40;88.10
53748;DHT22;39655;53.210;5.768;2023-11-19T15:18:36;12.40;88.40
53748;DHT22;39655;53.210;5.768;2023-11-19T15:21:02;12.30;89.20
53748;DHT22;39655;53.210;5.768;2023-11-19T15:23:27;12.10;89.90
53748;DHT22;39655;53.210;5.768;2023-11-19T15:25:54;12.00;90.90
53748;DHT22;39655;53.210;5.768;2023-11-19T15:28:20;11.90;91.40
53748;DHT22;39655;53.210;5.768;2023-11-19T15:30:47;11.80;92.20
53748;DHT22;39655;53.210;5.768;2023-11-19T15:33:13;11.70;92.80
53748;DHT22;39655;53.210;5.768;2023-11-19T15:35:38;11.60;93.20
53748;DHT22;39655;53.210;5.768;2023-11-19T15:38:05;11.50;93.20
53748;DHT22;39655;53.210;5.768;2023-11-19T15:40:32;11.40;93.50
53748;DHT22;39655;53.210;5.768;2023-11-19T15:42:58;11.30;93.70
53748;DHT22;39655;53.210;5.768;2023-11-19T15:45:24;11.20;93.90
53748;DHT22;39655;53.210;5.768;2023-11-19T15:47:50;11.20;94.00
53748;DHT22;39655;53.210;5.768;2023-11-19T15:50:15;11.20;94.20
53748;DHT22;39655;53.210;5.768;2023-11-19T15:52:41;11.20;94.40
53748;DHT22;39655;53.210;5.768;2023-11-19T15:55:09;11.10;94.40
53748;DHT22;39655;53.210;5.768;2023-11-19T15:57:37;11.10;94.60